sensor_id;sensor_type;location;lat;lon;timestamp;P1;durP1;ratioP1;P2;durP2;ratioP2
45049;SDS011;61798;48.048;-1.928;2022-11-20T00:01:14;14.18;;;6.03;;
45049;SDS011;61798;48.048;-1.928;2022-11-20T00:03:22;14.27;;;7.78;;
45049;SDS011;61798;48.048;-1.928;2022-11-20T00:05:28;10.93;;;6.63;;
45049;SDS011;61798;48.048;-1.928;2022-11-20T00:07:37;14.75;;;6.72;;
45049;SDS011;61798;48.048;-1.928;2022-11-20T00:09:44;13.48;;;7.10;;
45049;SDS011;61798;48.048;-1.928;2022-11-20T00:11:50;15.50;;;6.80;;
45049;SDS011;61798;48.048;-1.928;2022-11-20T00:13:57;15.52;;;7.18;;
45049;SDS011;61798;48.048;-1.928;2022-11-20T00:16:05;12.15;;;7.28;;
45049;SDS011;61798;48.048;-1.928;2022-11-20T00:18:12;12.90;;;7.78;;
45049;SDS011;61798;48.048;-1.928;2022-11-20T00:20:19;17.10;;;7.70;;
45049;SDS011;61798;48.048;-1.928;2022-11-20T00:22:25;16.17;;;7.07;;
45049;SDS011;61798;48.048;-1.928;2022-11-20T00:24:31;13.70;;;7.35;;
45049;SDS011;61798;48.048;-1.928;2022-11-20T00:26:36;18.38;;;7.53;;
45049;SDS011;61798;48.048;-1.928;2022-11-20T00:28:43;17.83;;;7.95;;
45049;SDS011;61798;48.048;-1.928;2022-11-20T00:31:00;14.90;;;7.72;;
45049;SDS011;61798;48.048;-1.928;2022-11-20T00:33:07;13.25;;;7.32;;
45049;SDS011;61798;48.048;-1.928;2022-11-20T00:35:13;16.15;;;8.40;;
45049;SDS011;61798;48.048;-1.928;2022-11-20T00:37:19;29.67;;;14.15;;
45049;SDS011;61798;48.048;-1.928;2022-11-20T00:39:25;37.38;;;17.42;;
45049;SDS011;61798;48.048;-1.928;2022-11-20T00:41:31;42.40;;;19.45;;
45049;SDS011;61798;48.048;-1.928;2022-11-20T00:43:37;44.88;;;18.92;;
45049;SDS011;61798;48.048;-1.928;2022-11-20T00:45:44;37.42;;;17.83;;
45049;SDS011;61798;48.048;-1.928;2022-11-20T00:47:50;30.90;;;15.32;;
45049;SDS011;61798;48.048;-1.928;2022-11-20T00:49:56;29.10;;;14.45;;
45049;SDS011;61798;48.048;-1.928;2022-11-20T00:52:02;30.73;;;15.27;;
45049;SDS011;61798;48.048;-1.928;2022-11-20T00:54:08;28.17;;;12.50;;
45049;SDS011;61798;48.048;-1.928;2022-11-20T00:56:15;18.35;;;9.43;;
45049;SDS011;61798;48.048;-1.928;2022-11-20T00:58:23;20.05;;;9.02;;
45049;SDS011;61798;48.048;-1.928;2022-11-20T01:00:31;19.40;;;9.63;;
45049;SDS011;61798;48.048;-1.928;2022-11-20T01:02:37;17.00;;;7.20;;
45049;SDS011;61798;48.048;-1.928;2022-11-20T01:04:43;18.38;;;7.93;;
45049;SDS011;61798;48.048;-1.928;2022-11-20T01:06:49;13.55;;;7.75;;
45049;SDS011;61798;48.048;-1.928;2022-11-20T01:08:56;15.55;;;7.32;;
45049;SDS011;61798;48.048;-1.928;2022-11-20T01:11:06;14.95;;;7.82;;
45049;SDS011;61798;48.048;-1.928;2022-11-20T01:13:13;11.98;;;6.72;;
45049;SDS011;61798;48.048;-1.928;2022-11-20T01:15:38;15.68;;;7.50;;
45049;SDS011;61798;48.048;-1.928;2022-11-20T01:17:44;13.48;;;7.45;;
45049;SDS011;61798;48.048;-1.928;2022-11-20T01:19:50;16.83;;;8.40;;
45049;SDS011;61798;48.048;-1.928;2022-11-20T01:21:56;13.30;;;7.45;;
45049;SDS011;61798;48.048;-1.928;2022-11-20T01:24:02;14.25;;;8.93;;
45049;SDS011;61798;48.048;-1.928;2022-11-20T01:26:11;14.13;;;8.00;;
45049;SDS011;61798;48.048;-1.928;2022-11-20T01:28:19;17.08;;;8.05;;
45049;SDS011;61798;48.048;-1.928;2022-11-20T01:30:26;14.52;;;7.93;;
45049;SDS011;61798;48.048;-1.928;2022-11-20T01:32:32;25.50;;;8.57;;
45049;SDS011;61798;48.048;-1.928;2022-11-20T01:34:38;17.83;;;7.95;;
45049;SDS011;61798;48.048;-1.928;2022-11-20T01:36:44;16.27;;;8.65;;
45049;SDS011;61798;48.048;-1.928;2022-11-20T01:38:51;15.23;;;7.60;;
45049;SDS011;61798;48.048;-1.928;2022-11-20T01:40:58;19.98;;;9.10;;
45049;SDS011;61798;48.048;-1.928;2022-11-20T01:43:11;11.27;;;7.47;;
45049;SDS011;61798;48.048;-1.928;2022-11-20T01:47:53;14.50;;;7.90;;
45049;SDS011;61798;48.048;-1.928;2022-11-20T01:52:23;18.60;;;7.95;;
45049;SDS011;61798;48.048;-1.928;2022-11-20T01:54:35;16.45;;;7.75;;
45049;SDS011;61798;48.048;-1.928;2022-11-20T01:56:45;14.88;;;7.85;;
45049;SDS011;61798;48.048;-1.928;2022-11-20T01:58:55;17.98;;;8.23;;
45049;SDS011;61798;48.048;-1.928;2022-11-20T02:01:04;18.13;;;8.57;;
45049;SDS011;61798;48.048;-1.928;2022-11-20T02:03:15;14.32;;;7.07;;
45049;SDS011;61798;48.048;-1.928;2022-11-20T02:07:40;16.55;;;6.57;;
45049;SDS011;61798;48.048;-1.928;2022-11-20T02:09:47;12.88;;;6.38;;
45049;SDS011;61798;48.048;-1.928;2022-11-20T02:11:53;12.43;;;5.93;;
45049;SDS011;61798;48.048;-1.928;2022-11-20T02:13:59;14.20;;;6.28;;
45049;SDS011;61798;48.048;-1.928;2022-11-20T02:16:08;12.15;;;6.20;;
45049;SDS011;61798;48.048;-1.928;2022-11-20T02:18:19;15.07;;;6.50;;
45049;SDS011;61798;48.048;-1.928;2022-11-20T02:20:26;9.80;;;5.40;;
45049;SDS011;61798;48.048;-1.928;2022-11-20T02:22:35;13.32;;;5.22;;
45049;SDS011;61798;48.048;-1.928;2022-11-20T02:25:09;10.48;;;5.43;;
45049;SDS011;61798;48.048;-1.928;2022-11-20T02:27:16;14.85;;;4.85;;
45049;SDS011;61798;48.048;-1.928;2022-11-20T02:29:26;11.82;;;4.85;;
45049;SDS011;61798;48.048;-1.928;2022-11-20T02:31:39;12.40;;;5.03;;
45049;SDS011;61798;48.048;-1.928;2022-11-20T02:33:47;11.63;;;4.70;;
45049;SDS011;61798;48.048;-1.928;2022-11-20T02:36:00;7.93;;;4.05;;
45049;SDS011;61798;48.048;-1.928;2022-11-20T02:38:06;13.50;;;4.40;;
45049;SDS011;61798;48.048;-1.928;2022-11-20T02:40:13;10.32;;;3.97;;
45049;SDS011;61798;48.048;-1.928;2022-11-20T02:42:19;9.57;;;4.70;;
45049;SDS011;61798;48.048;-1.928;2022-11-20T02:44:25;7.72;;;3.75;;
45049;SDS011;61798;48.048;-1.928;2022-11-20T02:46:31;9.27;;;3.88;;
45049;SDS011;61798;48.048;-1.928;2022-11-20T02:48:38;8.88;;;3.47;;
45049;SDS011;61798;48.048;-1.928;2022-11-20T02:50:44;6.00;;;3.95;;
45049;SDS011;61798;48.048;-1.928;2022-11-20T02:52:50;9.55;;;3.78;;
45049;SDS011;61798;48.048;-1.928;2022-11-20T02:54:56;9.13;;;3.45;;
45049;SDS011;61798;48.048;-1.928;2022-11-20T02:57:03;8.32;;;3.88;;
45049;SDS011;61798;48.048;-1.928;2022-11-20T02:59:09;9.70;;;3.40;;
45049;SDS011;61798;48.048;-1.928;2022-11-20T03:01:15;9.60;;;3.63;;
45049;SDS011;61798;48.048;-1.928;2022-11-20T03:03:21;6.65;;;3.72;;
45049;SDS011;61798;48.048;-1.928;2022-11-20T03:05:28;10.30;;;3.72;;
45049;SDS011;61798;48.048;-1.928;2022-11-20T03:07:34;8.48;;;3.88;;
45049;SDS011;61798;48.048;-1.928;2022-11-20T03:09:40;8.48;;;3.88;;
45049;SDS011;61798;48.048;-1.928;2022-11-20T03:11:46;8.30;;;3.38;;
45049;SDS011;61798;48.048;-1.928;2022-11-20T03:13:52;7.03;;;3.60;;
45049;SDS011;61798;48.048;-1.928;2022-11-20T03:15:58;9.73;;;4.00;;
45049;SDS011;61798;48.048;-1.928;2022-11-20T03:18:09;8.35;;;3.53;;
45049;SDS011;61798;48.048;-1.928;2022-11-20T03:20:15;6.35;;;3.38;;
45049;SDS011;61798;48.048;-1.928;2022-11-20T03:22:22;8.05;;;2.95;;
45049;SDS011;61798;48.048;-1.928;2022-11-20T03:24:28;8.82;;;3.53;;
45049;SDS011;61798;48.048;-1.928;2022-11-20T03:26:34;6.95;;;3.20;;
45049;SDS011;61798;48.048;-1.928;2022-11-20T03:28:45;5.13;;;3.03;;
45049;SDS011;61798;48.048;-1.928;2022-11-20T03:30:53;8.20;;;3.53;;
45049;SDS011;61798;48.048;-1.928;2022-11-20T03:32:59;7.63;;;3.97;;
45049;SDS011;61798;48.048;-1.928;2022-11-20T03:35:06;7.53;;;3.88;;
45049;SDS011;61798;48.048;-1.928;2022-11-20T03:37:12;7.57;;;3.65;;
45049;SDS011;61798;48.048;-1.928;2022-11-20T03:39:18;7.35;;;3.90;;
45049;SDS011;61798;48.048;-1.928;2022-11-20T03:41:26;6.68;;;3.40;;
45049;SDS011;61798;48.048;-1.928;2022-11-20T03:43:33;4.68;;;3.63;;
45049;SDS011;61798;48.048;-1.928;2022-11-20T03:45:39;10.82;;;4.05;;
45049;SDS011;61798;48.048;-1.928;2022-11-20T03:47:45;11.45;;;3.70;;
45049;SDS011;61798;48.048;-1.928;2022-11-20T03:49:51;9.07;;;4.90;;
45049;SDS011;61798;48.048;-1.928;2022-11-20T03:51:57;10.55;;;3.28;;
45049;SDS011;61798;48.048;-1.928;2022-11-20T03:54:05;8.82;;;3.90;;
45049;SDS011;61798;48.048;-1.928;2022-11-20T03:56:13;8.73;;;3.35;;
45049;SDS011;61798;48.048;-1.928;2022-11-20T03:58:21;11.80;;;3.97;;
45049;SDS011;61798;48.048;-1.928;2022-11-20T04:00:26;9.40;;;3.72;;
45049;SDS011;61798;48.048;-1.928;2022-11-20T04:02:33;10.88;;;3.20;;
45049;SDS011;61798;48.048;-1.928;2022-11-20T04:04:39;8.52;;;4.05;;
45049;SDS011;61798;48.048;-1.928;2022-11-20T04:06:45;11.40;;;4.35;;
45049;SDS011;61798;48.048;-1.928;2022-11-20T04:08:51;11.52;;;4.18;;
45049;SDS011;61798;48.048;-1.928;2022-11-20T04:11:16;8.85;;;4.00;;
45049;SDS011;61798;48.048;-1.928;2022-11-20T04:13:25;15.48;;;4.30;;
45049;SDS011;61798;48.048;-1.928;2022-11-20T04:15:31;8.65;;;3.88;;
45049;SDS011;61798;48.048;-1.928;2022-11-20T04:17:37;8.38;;;4.57;;
45049;SDS011;61798;48.048;-1.928;2022-11-20T04:19:43;8.18;;;3.78;;
45049;SDS011;61798;48.048;-1.928;2022-11-20T04:21:49;12.75;;;4.03;;
45049;SDS011;61798;48.048;-1.928;2022-11-20T04:23:55;6.50;;;3.60;;
45049;SDS011;61798;48.048;-1.928;2022-11-20T04:26:07;7.53;;;4.00;;
45049;SDS011;61798;48.048;-1.928;2022-11-20T04:28:14;8.68;;;3.95;;
45049;SDS011;61798;48.048;-1.928;2022-11-20T04:30:20;8.60;;;4.30;;
45049;SDS011;61798;48.048;-1.928;2022-11-20T04:32:27;7.13;;;4.38;;
45049;SDS011;61798;48.048;-1.928;2022-11-20T04:34:33;8.75;;;4.35;;
45049;SDS011;61798;48.048;-1.928;2022-11-20T04:36:39;9.15;;;4.57;;
45049;SDS011;61798;48.048;-1.928;2022-11-20T04:38:45;6.38;;;5.00;;
45049;SDS011;61798;48.048;-1.928;2022-11-20T04:40:55;7.68;;;5.57;;
45049;SDS011;61798;48.048;-1.928;2022-11-20T04:43:02;10.98;;;6.22;;
45049;SDS011;61798;48.048;-1.928;2022-11-20T04:45:08;9.63;;;6.43;;
45049;SDS011;61798;48.048;-1.928;2022-11-20T04:47:14;14.93;;;6.88;;
45049;SDS011;61798;48.048;-1.928;2022-11-20T04:49:20;11.75;;;7.10;;
45049;SDS011;61798;48.048;-1.928;2022-11-20T04:51:27;11.45;;;7.38;;
45049;SDS011;61798;48.048;-1.928;2022-11-20T04:53:33;9.32;;;7.40;;
45049;SDS011;61798;48.048;-1.928;2022-11-20T04:55:39;11.77;;;7.45;;
45049;SDS011;61798;48.048;-1.928;2022-11-20T04:57:45;11.18;;;8.18;;
45049;SDS011;61798;48.048;-1.928;2022-11-20T04:59:56;10.82;;;7.65;;
45049;SDS011;61798;48.048;-1.928;2022-11-20T05:02:02;13.30;;;8.27;;
45049;SDS011;61798;48.048;-1.928;2022-11-20T05:04:08;9.80;;;7.75;;
45049;SDS011;61798;48.048;-1.928;2022-11-20T05:06:17;10.98;;;7.78;;
45049;SDS011;61798;48.048;-1.928;2022-11-20T05:08:24;13.88;;;7.93;;
45049;SDS011;61798;48.048;-1.928;2022-11-20T05:10:30;11.27;;;7.80;;
45049;SDS011;61798;48.048;-1.928;2022-11-20T05:12:36;11.15;;;6.90;;
45049;SDS011;61798;48.048;-1.928;2022-11-20T05:14:42;9.98;;;6.25;;
45049;SDS011;61798;48.048;-1.928;2022-11-20T05:16:48;10.75;;;6.38;;
45049;SDS011;61798;48.048;-1.928;2022-11-20T05:18:54;8.95;;;6.82;;
45049;SDS011;61798;48.048;-1.928;2022-11-20T05:21:01;9.35;;;6.15;;
45049;SDS011;61798;48.048;-1.928;2022-11-20T05:23:07;11.02;;;5.55;;
45049;SDS011;61798;48.048;-1.928;2022-11-20T05:25:13;7.28;;;5.10;;
45049;SDS011;61798;48.048;-1.928;2022-11-20T05:27:20;8.13;;;5.47;;
45049;SDS011;61798;48.048;-1.928;2022-11-20T05:29:26;7.22;;;5.45;;
45049;SDS011;61798;48.048;-1.928;2022-11-20T05:31:32;5.32;;;4.82;;
45049;SDS011;61798;48.048;-1.928;2022-11-20T05:33:42;7.55;;;4.80;;
45049;SDS011;61798;48.048;-1.928;2022-11-20T05:35:49;5.72;;;4.70;;
45049;SDS011;61798;48.048;-1.928;2022-11-20T05:37:55;4.40;;;3.97;;
45049;SDS011;61798;48.048;-1.928;2022-11-20T05:40:01;3.92;;;3.40;;
45049;SDS011;61798;48.048;-1.928;2022-11-20T05:42:07;4.07;;;3.67;;
45049;SDS011;61798;48.048;-1.928;2022-11-20T05:44:31;5.22;;;3.53;;
45049;SDS011;61798;48.048;-1.928;2022-11-20T05:46:37;4.22;;;3.33;;
45049;SDS011;61798;48.048;-1.928;2022-11-20T05:48:43;5.30;;;3.55;;
45049;SDS011;61798;48.048;-1.928;2022-11-20T05:50:50;4.53;;;4.03;;
45049;SDS011;61798;48.048;-1.928;2022-11-20T05:53:00;3.97;;;3.58;;
45049;SDS011;61798;48.048;-1.928;2022-11-20T05:55:06;4.35;;;3.95;;
45049;SDS011;61798;48.048;-1.928;2022-11-20T05:57:13;6.53;;;3.45;;
45049;SDS011;61798;48.048;-1.928;2022-11-20T05:59:19;4.18;;;3.03;;
45049;SDS011;61798;48.048;-1.928;2022-11-20T06:01:25;2.55;;;2.20;;
45049;SDS011;61798;48.048;-1.928;2022-11-20T06:03:31;2.17;;;1.85;;
45049;SDS011;61798;48.048;-1.928;2022-11-20T06:05:38;3.22;;;1.73;;
45049;SDS011;61798;48.048;-1.928;2022-11-20T06:07:44;1.70;;;1.50;;
45049;SDS011;61798;48.048;-1.928;2022-11-20T06:09:50;1.75;;;1.00;;
45049;SDS011;61798;48.048;-1.928;2022-11-20T06:11:56;3.80;;;1.02;;
45049;SDS011;61798;48.048;-1.928;2022-11-20T06:14:02;1.08;;;0.98;;
45049;SDS011;61798;48.048;-1.928;2022-11-20T06:16:09;1.50;;;0.70;;
45049;SDS011;61798;48.048;-1.928;2022-11-20T06:18:16;2.25;;;0.80;;
45049;SDS011;61798;48.048;-1.928;2022-11-20T06:20:23;1.13;;;0.77;;
45049;SDS011;61798;48.048;-1.928;2022-11-20T06:22:29;2.13;;;0.70;;
45049;SDS011;61798;48.048;-1.928;2022-11-20T06:24:35;1.45;;;0.70;;
45049;SDS011;61798;48.048;-1.928;2022-11-20T06:26:41;2.22;;;1.48;;
45049;SDS011;61798;48.048;-1.928;2022-11-20T06:28:47;2.05;;;1.38;;
45049;SDS011;61798;48.048;-1.928;2022-11-20T06:30:53;1.13;;;0.90;;
45049;SDS011;61798;48.048;-1.928;2022-11-20T06:32:59;3.08;;;1.00;;
45049;SDS011;61798;48.048;-1.928;2022-11-20T06:35:05;1.92;;;1.00;;
45049;SDS011;61798;48.048;-1.928;2022-11-20T06:37:12;0.85;;;0.82;;
45049;SDS011;61798;48.048;-1.928;2022-11-20T06:39:18;1.13;;;1.02;;
45049;SDS011;61798;48.048;-1.928;2022-11-20T06:41:23;1.20;;;1.10;;
45049;SDS011;61798;48.048;-1.928;2022-11-20T06:43:30;1.98;;;1.88;;
45049;SDS011;61798;48.048;-1.928;2022-11-20T06:45:36;2.20;;;1.90;;
45049;SDS011;61798;48.048;-1.928;2022-11-20T06:47:43;1.30;;;1.20;;
45049;SDS011;61798;48.048;-1.928;2022-11-20T06:49:49;3.00;;;2.03;;
45049;SDS011;61798;48.048;-1.928;2022-11-20T06:51:55;1.60;;;1.40;;
45049;SDS011;61798;48.048;-1.928;2022-11-20T06:54:01;3.17;;;1.67;;
45049;SDS011;61798;48.048;-1.928;2022-11-20T06:56:07;3.75;;;1.92;;
45049;SDS011;61798;48.048;-1.928;2022-11-20T06:58:14;2.40;;;1.48;;
45049;SDS011;61798;48.048;-1.928;2022-11-20T07:00:21;3.13;;;1.20;;
45049;SDS011;61798;48.048;-1.928;2022-11-20T07:02:27;2.03;;;1.55;;
45049;SDS011;61798;48.048;-1.928;2022-11-20T07:04:33;1.98;;;1.20;;
45049;SDS011;61798;48.048;-1.928;2022-11-20T07:06:39;2.45;;;1.05;;
45049;SDS011;61798;48.048;-1.928;2022-11-20T07:08:45;3.50;;;1.10;;
45049;SDS011;61798;48.048;-1.928;2022-11-20T07:10:52;6.53;;;1.00;;
45049;SDS011;61798;48.048;-1.928;2022-11-20T07:12:58;5.93;;;1.20;;
45049;SDS011;61798;48.048;-1.928;2022-11-20T07:15:05;5.57;;;1.30;;
45049;SDS011;61798;48.048;-1.928;2022-11-20T07:17:11;8.13;;;1.20;;
45049;SDS011;61798;48.048;-1.928;2022-11-20T07:19:18;8.15;;;1.98;;
45049;SDS011;61798;48.048;-1.928;2022-11-20T07:21:24;4.18;;;1.08;;
45049;SDS011;61798;48.048;-1.928;2022-11-20T07:23:30;5.68;;;1.02;;
45049;SDS011;61798;48.048;-1.928;2022-11-20T07:25:36;7.22;;;1.50;;
45049;SDS011;61798;48.048;-1.928;2022-11-20T07:27:42;8.02;;;1.25;;
45049;SDS011;61798;48.048;-1.928;2022-11-20T07:29:48;10.95;;;2.40;;
45049;SDS011;61798;48.048;-1.928;2022-11-20T07:31:54;16.25;;;2.88;;
45049;SDS011;61798;48.048;-1.928;2022-11-20T07:34:01;10.57;;;1.67;;
45049;SDS011;61798;48.048;-1.928;2022-11-20T07:36:07;8.65;;;1.60;;
45049;SDS011;61798;48.048;-1.928;2022-11-20T07:38:13;8.00;;;1.50;;
45049;SDS011;61798;48.048;-1.928;2022-11-20T07:40:20;10.65;;;1.73;;
45049;SDS011;61798;48.048;-1.928;2022-11-20T07:42:26;11.80;;;1.58;;
45049;SDS011;61798;48.048;-1.928;2022-11-20T07:44:32;16.20;;;1.80;;
45049;SDS011;61798;48.048;-1.928;2022-11-20T07:46:38;10.85;;;2.10;;
45049;SDS011;61798;48.048;-1.928;2022-11-20T07:48:44;11.68;;;2.08;;
45049;SDS011;61798;48.048;-1.928;2022-11-20T07:50:54;9.07;;;1.85;;
45049;SDS011;61798;48.048;-1.928;2022-11-20T07:53:04;10.57;;;1.55;;
45049;SDS011;61798;48.048;-1.928;2022-11-20T07:55:10;8.25;;;1.48;;
45049;SDS011;61798;48.048;-1.928;2022-11-20T07:57:17;9.48;;;1.77;;
45049;SDS011;61798;48.048;-1.928;2022-11-20T07:59:23;13.43;;;2.00;;
45049;SDS011;61798;48.048;-1.928;2022-11-20T08:01:29;9.38;;;1.95;;
45049;SDS011;61798;48.048;-1.928;2022-11-20T08:03:35;16.48;;;2.20;;
45049;SDS011;61798;48.048;-1.928;2022-11-20T08:05:44;19.50;;;2.35;;
45049;SDS011;61798;48.048;-1.928;2022-11-20T08:07:50;13.90;;;2.30;;
45049;SDS011;61798;48.048;-1.928;2022-11-20T08:09:56;17.70;;;2.45;;
45049;SDS011;61798;48.048;-1.928;2022-11-20T08:12:03;18.80;;;2.55;;
45049;SDS011;61798;48.048;-1.928;2022-11-20T08:14:28;18.23;;;2.20;;
45049;SDS011;61798;48.048;-1.928;2022-11-20T08:16:34;16.17;;;2.58;;
45049;SDS011;61798;48.048;-1.928;2022-11-20T08:18:40;16.45;;;2.35;;
45049;SDS011;61798;48.048;-1.928;2022-11-20T08:20:46;18.35;;;2.95;;
45049;SDS011;61798;48.048;-1.928;2022-11-20T08:22:52;17.52;;;2.67;;
45049;SDS011;61798;48.048;-1.928;2022-11-20T08:25:02;14.55;;;2.42;;
45049;SDS011;61798;48.048;-1.928;2022-11-20T08:27:09;23.88;;;2.80;;
45049;SDS011;61798;48.048;-1.928;2022-11-20T08:29:15;23.17;;;2.75;;
45049;SDS011;61798;48.048;-1.928;2022-11-20T08:31:22;22.70;;;2.95;;
45049;SDS011;61798;48.048;-1.928;2022-11-20T08:33:29;22.52;;;3.08;;
45049;SDS011;61798;48.048;-1.928;2022-11-20T08:35:38;21.27;;;2.90;;
45049;SDS011;61798;48.048;-1.928;2022-11-20T08:37:47;21.83;;;3.15;;
45049;SDS011;61798;48.048;-1.928;2022-11-20T08:39:54;20.23;;;3.00;;
45049;SDS011;61798;48.048;-1.928;2022-11-20T08:42:06;21.08;;;3.00;;
45049;SDS011;61798;48.048;-1.928;2022-11-20T08:44:13;20.88;;;3.47;;
45049;SDS011;61798;48.048;-1.928;2022-11-20T08:46:19;23.13;;;3.20;;
45049;SDS011;61798;48.048;-1.928;2022-11-20T08:48:25;22.88;;;3.20;;
45049;SDS011;61798;48.048;-1.928;2022-11-20T08:50:31;30.55;;;3.58;;
45049;SDS011;61798;48.048;-1.928;2022-11-20T08:52:38;20.60;;;3.47;;
45049;SDS011;61798;48.048;-1.928;2022-11-20T08:54:44;22.75;;;3.72;;
45049;SDS011;61798;48.048;-1.928;2022-11-20T08:56:50;23.95;;;3.00;;
45049;SDS011;61798;48.048;-1.928;2022-11-20T08:58:56;25.05;;;3.45;;
45049;SDS011;61798;48.048;-1.928;2022-11-20T09:01:05;35.58;;;4.35;;
45049;SDS011;61798;48.048;-1.928;2022-11-20T09:03:11;25.23;;;4.13;;
45049;SDS011;61798;48.048;-1.928;2022-11-20T09:05:18;30.65;;;4.82;;
45049;SDS011;61798;48.048;-1.928;2022-11-20T09:07:24;32.50;;;4.80;;
45049;SDS011;61798;48.048;-1.928;2022-11-20T09:09:30;27.95;;;4.53;;
45049;SDS011;61798;48.048;-1.928;2022-11-20T09:11:38;26.58;;;4.47;;
45049;SDS011;61798;48.048;-1.928;2022-11-20T09:13:44;37.95;;;4.78;;
45049;SDS011;61798;48.048;-1.928;2022-11-20T09:15:57;27.00;;;3.85;;
45049;SDS011;61798;48.048;-1.928;2022-11-20T09:18:05;30.80;;;4.35;;
45049;SDS011;61798;48.048;-1.928;2022-11-20T09:20:13;37.63;;;4.50;;
45049;SDS011;61798;48.048;-1.928;2022-11-20T09:22:19;35.38;;;5.25;;
45049;SDS011;61798;48.048;-1.928;2022-11-20T09:24:28;26.20;;;3.95;;
45049;SDS011;61798;48.048;-1.928;2022-11-20T09:26:35;38.67;;;4.78;;
45049;SDS011;61798;48.048;-1.928;2022-11-20T09:28:41;34.35;;;4.47;;
45049;SDS011;61798;48.048;-1.928;2022-11-20T09:30:47;32.13;;;4.63;;
45049;SDS011;61798;48.048;-1.928;2022-11-20T09:32:53;30.80;;;4.15;;
45049;SDS011;61798;48.048;-1.928;2022-11-20T09:35:00;28.08;;;4.43;;
45049;SDS011;61798;48.048;-1.928;2022-11-20T09:37:06;23.73;;;3.83;;
45049;SDS011;61798;48.048;-1.928;2022-11-20T09:39:12;31.88;;;4.38;;
45049;SDS011;61798;48.048;-1.928;2022-11-20T09:44:06;29.30;;;4.88;;
45049;SDS011;61798;48.048;-1.928;2022-11-20T09:49:17;29.92;;;4.82;;
45049;SDS011;61798;48.048;-1.928;2022-11-20T09:51:36;33.30;;;4.50;;
45049;SDS011;61798;48.048;-1.928;2022-11-20T09:54:13;36.80;;;5.15;;
45049;SDS011;61798;48.048;-1.928;2022-11-20T09:56:26;34.17;;;4.80;;
45049;SDS011;61798;48.048;-1.928;2022-11-20T09:58:41;31.85;;;4.82;;
45049;SDS011;61798;48.048;-1.928;2022-11-20T10:00:51;30.42;;;4.93;;
45049;SDS011;61798;48.048;-1.928;2022-11-20T10:03:03;30.10;;;4.90;;
45049;SDS011;61798;48.048;-1.928;2022-11-20T10:05:23;34.08;;;5.65;;
45049;SDS011;61798;48.048;-1.928;2022-11-20T10:10:33;36.05;;;5.60;;
45049;SDS011;61798;48.048;-1.928;2022-11-20T10:27:28;35.63;;;4.57;;
45049;SDS011;61798;48.048;-1.928;2022-11-20T10:29:46;26.85;;;4.53;;
45049;SDS011;61798;48.048;-1.928;2022-11-20T10:32:01;34.15;;;5.18;;
45049;SDS011;61798;48.048;-1.928;2022-11-20T10:34:18;28.40;;;5.00;;
45049;SDS011;61798;48.048;-1.928;2022-11-20T10:36:34;26.25;;;5.05;;
45049;SDS011;61798;48.048;-1.928;2022-11-20T10:39:11;33.00;;;5.18;;
45049;SDS011;61798;48.048;-1.928;2022-11-20T10:41:38;29.95;;;4.82;;
45049;SDS011;61798;48.048;-1.928;2022-11-20T10:43:47;29.17;;;4.20;;
45049;SDS011;61798;48.048;-1.928;2022-11-20T10:46:02;34.47;;;4.93;;
45049;SDS011;61798;48.048;-1.928;2022-11-20T10:48:15;32.10;;;4.47;;
45049;SDS011;61798;48.048;-1.928;2022-11-20T10:50:31;25.60;;;4.57;;
45049;SDS011;61798;48.048;-1.928;2022-11-20T10:52:42;25.13;;;4.57;;
45049;SDS011;61798;48.048;-1.928;2022-11-20T11:02:17;27.42;;;4.68;;
45049;SDS011;61798;48.048;-1.928;2022-11-20T11:04:33;30.95;;;5.18;;
45049;SDS011;61798;48.048;-1.928;2022-11-20T11:06:48;26.13;;;3.70;;
45049;SDS011;61798;48.048;-1.928;2022-11-20T11:08:56;26.45;;;4.32;;
45049;SDS011;61798;48.048;-1.928;2022-11-20T11:11:28;22.50;;;4.07;;
45049;SDS011;61798;48.048;-1.928;2022-11-20T11:13:34;26.85;;;4.00;;
45049;SDS011;61798;48.048;-1.928;2022-11-20T11:15:40;28.13;;;4.43;;
45049;SDS011;61798;48.048;-1.928;2022-11-20T11:17:47;21.10;;;3.92;;
45049;SDS011;61798;48.048;-1.928;2022-11-20T11:20:15;30.88;;;4.20;;
45049;SDS011;61798;48.048;-1.928;2022-11-20T11:22:26;23.25;;;4.43;;
45049;SDS011;61798;48.048;-1.928;2022-11-20T11:24:37;30.95;;;4.18;;
45049;SDS011;61798;48.048;-1.928;2022-11-20T11:26:50;29.48;;;4.65;;
45049;SDS011;61798;48.048;-1.928;2022-11-20T11:29:03;25.25;;;4.65;;
45049;SDS011;61798;48.048;-1.928;2022-11-20T11:31:09;24.42;;;4.05;;
45049;SDS011;61798;48.048;-1.928;2022-11-20T11:33:19;25.40;;;4.63;;
45049;SDS011;61798;48.048;-1.928;2022-11-20T11:35:29;29.25;;;4.88;;
45049;SDS011;61798;48.048;-1.928;2022-11-20T11:37:36;22.85;;;4.28;;
45049;SDS011;61798;48.048;-1.928;2022-11-20T11:39:44;23.75;;;4.28;;
45049;SDS011;61798;48.048;-1.928;2022-11-20T11:41:52;27.60;;;4.57;;
45049;SDS011;61798;48.048;-1.928;2022-11-20T11:44:00;32.42;;;4.93;;
45049;SDS011;61798;48.048;-1.928;2022-11-20T11:46:37;35.58;;;5.10;;
45049;SDS011;61798;48.048;-1.928;2022-11-20T11:51:11;33.42;;;4.80;;
45049;SDS011;61798;48.048;-1.928;2022-11-20T11:53:21;35.88;;;4.70;;
45049;SDS011;61798;48.048;-1.928;2022-11-20T11:55:31;28.17;;;5.28;;
45049;SDS011;61798;48.048;-1.928;2022-11-20T11:59:54;25.02;;;4.60;;
45049;SDS011;61798;48.048;-1.928;2022-11-20T12:02:28;39.45;;;6.07;;
45049;SDS011;61798;48.048;-1.928;2022-11-20T12:04:46;32.85;;;4.60;;
45049;SDS011;61798;48.048;-1.928;2022-11-20T12:07:07;31.92;;;5.53;;
45049;SDS011;61798;48.048;-1.928;2022-11-20T12:09:37;31.10;;;5.80;;
45049;SDS011;61798;48.048;-1.928;2022-11-20T12:11:49;30.65;;;4.65;;
45049;SDS011;61798;48.048;-1.928;2022-11-20T12:16:40;33.10;;;5.63;;
45049;SDS011;61798;48.048;-1.928;2022-11-20T12:18:47;33.03;;;5.82;;
45049;SDS011;61798;48.048;-1.928;2022-11-20T12:23:40;29.05;;;4.53;;
45049;SDS011;61798;48.048;-1.928;2022-11-20T12:25:58;32.45;;;4.95;;
45049;SDS011;61798;48.048;-1.928;2022-11-20T12:33:39;28.88;;;3.97;;
45049;SDS011;61798;48.048;-1.928;2022-11-20T12:41:43;25.08;;;4.53;;
45049;SDS011;61798;48.048;-1.928;2022-11-20T12:43:48;26.30;;;4.32;;
45049;SDS011;61798;48.048;-1.928;2022-11-20T12:46:37;32.25;;;4.28;;
45049;SDS011;61798;48.048;-1.928;2022-11-20T13:05:43;32.40;;;3.83;;
45049;SDS011;61798;48.048;-1.928;2022-11-20T13:07:53;24.83;;;3.88;;
45049;SDS011;61798;48.048;-1.928;2022-11-20T13:10:00;23.80;;;4.00;;
45049;SDS011;61798;48.048;-1.928;2022-11-20T13:14:42;20.20;;;3.95;;
45049;SDS011;61798;48.048;-1.928;2022-11-20T13:19:04;29.08;;;4.15;;
45049;SDS011;61798;48.048;-1.928;2022-11-20T13:21:36;25.15;;;3.63;;
45049;SDS011;61798;48.048;-1.928;2022-11-20T13:23:47;27.65;;;3.85;;
45049;SDS011;61798;48.048;-1.928;2022-11-20T13:26:06;21.48;;;3.25;;
45049;SDS011;61798;48.048;-1.928;2022-11-20T13:30:36;19.70;;;4.63;;
45049;SDS011;61798;48.048;-1.928;2022-11-20T13:33:08;24.17;;;3.60;;
45049;SDS011;61798;48.048;-1.928;2022-11-20T13:35:36;20.42;;;3.72;;
45049;SDS011;61798;48.048;-1.928;2022-11-20T13:38:13;18.38;;;3.72;;
45049;SDS011;61798;48.048;-1.928;2022-11-20T13:40:22;22.75;;;4.07;;
45049;SDS011;61798;48.048;-1.928;2022-11-20T13:42:28;20.50;;;3.60;;
45049;SDS011;61798;48.048;-1.928;2022-11-20T13:44:39;26.10;;;4.72;;
45049;SDS011;61798;48.048;-1.928;2022-11-20T13:46:52;21.33;;;3.75;;
45049;SDS011;61798;48.048;-1.928;2022-11-20T13:48:58;17.85;;;4.30;;
45049;SDS011;61798;48.048;-1.928;2022-11-20T13:51:22;29.45;;;4.57;;
45049;SDS011;61798;48.048;-1.928;2022-11-20T14:01:09;22.30;;;3.58;;
45049;SDS011;61798;48.048;-1.928;2022-11-20T14:03:21;31.25;;;4.00;;
45049;SDS011;61798;48.048;-1.928;2022-11-20T14:05:29;22.58;;;4.20;;
45049;SDS011;61798;48.048;-1.928;2022-11-20T14:07:40;25.98;;;5.03;;
45049;SDS011;61798;48.048;-1.928;2022-11-20T14:09:49;17.90;;;3.92;;